Delphia, Montana
Current Conditions -  °F | °C
As of 1:55 AM on Friday 24 Oct 2014 (Local Time) from KMVH Reporting Station
Clear Clear  
Wind Chill: 43°   Ceiling: Unl
Heat Index: 46°   Visibility: 10mi
Dew Point: 36°   Wind: 7mph
Humidity: 66%   Direction: 280°W
Pressure: 29.91"   Gusts: NA
Location:  46.5044°N, 108.218°W
Report Text: KMVH 240755Z AUTO 28006KT 10SM CLR 08/02 A2991 RMK A01
Loading
Personal Weather Stations






























Interactive Weather Map
Tropical Storm Tracking
New forecast layout! Learn more

10-Day Weather Forecast

Advertisements
Track Severe Weather on mobile